sensor_id;sensor_type;location;lat;lon;timestamp;P1;durP1;ratioP1;P2;durP2;ratioP2
59571;SDS011;59406;45.602;11.904;2023-03-20T00:01:18;3.60;;;1.40;;
59571;SDS011;59406;45.602;11.904;2023-03-20T00:03:46;3.50;;;1.23;;
59571;SDS011;59406;45.602;11.904;2023-03-20T00:06:19;3.65;;;1.23;;
59571;SDS011;59406;45.602;11.904;2023-03-20T00:08:48;3.75;;;1.25;;
59571;SDS011;59406;45.602;11.904;2023-03-20T00:13:56;3.93;;;1.30;;
59571;SDS011;59406;45.602;11.904;2023-03-20T00:16:29;4.95;;;1.60;;
59571;SDS011;59406;45.602;11.904;2023-03-20T00:19:00;3.83;;;1.48;;
59571;SDS011;59406;45.602;11.904;2023-03-20T00:21:27;4.30;;;1.75;;
59571;SDS011;59406;45.602;11.904;2023-03-20T00:23:54;3.90;;;1.48;;
59571;SDS011;59406;45.602;11.904;2023-03-20T00:26:21;4.80;;;1.87;;
59571;SDS011;59406;45.602;11.904;2023-03-20T00:28:55;3.90;;;1.45;;
59571;SDS011;59406;45.602;11.904;2023-03-20T00:31:29;4.90;;;1.45;;
59571;SDS011;59406;45.602;11.904;2023-03-20T00:33:57;3.42;;;1.20;;
59571;SDS011;59406;45.602;11.904;2023-03-20T00:36:25;3.78;;;1.40;;
59571;SDS011;59406;45.602;11.904;2023-03-20T00:38:51;3.90;;;1.40;;
59571;SDS011;59406;45.602;11.904;2023-03-20T00:41:22;3.85;;;1.10;;
59571;SDS011;59406;45.602;11.904;2023-03-20T00:43:55;4.10;;;1.50;;
59571;SDS011;59406;45.602;11.904;2023-03-20T00:46:29;4.07;;;1.50;;
59571;SDS011;59406;45.602;11.904;2023-03-20T00:48:58;3.90;;;1.55;;
59571;SDS011;59406;45.602;11.904;2023-03-20T00:51:24;4.17;;;1.60;;
59571;SDS011;59406;45.602;11.904;2023-03-20T00:53:49;4.43;;;1.60;;
59571;SDS011;59406;45.602;11.904;2023-03-20T00:58:59;3.90;;;1.35;;
59571;SDS011;59406;45.602;11.904;2023-03-20T01:01:26;4.22;;;1.40;;
59571;SDS011;59406;45.602;11.904;2023-03-20T01:03:53;3.70;;;1.23;;
59571;SDS011;59406;45.602;11.904;2023-03-20T01:06:19;4.25;;;1.52;;
59571;SDS011;59406;45.602;11.904;2023-03-20T01:08:45;4.17;;;1.37;;
59571;SDS011;59406;45.602;11.904;2023-03-20T01:11:13;4.63;;;1.50;;
59571;SDS011;59406;45.602;11.904;2023-03-20T01:13:45;4.47;;;1.48;;
59571;SDS011;59406;45.602;11.904;2023-03-20T01:16:16;4.00;;;1.45;;
59571;SDS011;59406;45.602;11.904;2023-03-20T01:18:45;4.10;;;1.50;;
59571;SDS011;59406;45.602;11.904;2023-03-20T01:21:12;3.65;;;1.25;;
59571;SDS011;59406;45.602;11.904;2023-03-20T01:23:38;4.00;;;1.50;;
59571;SDS011;59406;45.602;11.904;2023-03-20T01:26:05;4.03;;;1.55;;
59571;SDS011;59406;45.602;11.904;2023-03-20T01:28:56;4.95;;;1.65;;
59571;SDS011;59406;45.602;11.904;2023-03-20T01:31:22;4.50;;;1.87;;
59571;SDS011;59406;45.602;11.904;2023-03-20T01:33:48;4.75;;;1.50;;
59571;SDS011;59406;45.602;11.904;2023-03-20T01:36:16;4.00;;;1.55;;
59571;SDS011;59406;45.602;11.904;2023-03-20T01:38:45;4.38;;;1.20;;
59571;SDS011;59406;45.602;11.904;2023-03-20T01:41:20;4.10;;;1.40;;
59571;SDS011;59406;45.602;11.904;2023-03-20T01:43:49;4.45;;;1.48;;
59571;SDS011;59406;45.602;11.904;2023-03-20T01:50:09;4.82;;;1.45;;
59571;SDS011;59406;45.602;11.904;2023-03-20T01:51:54;3.90;;;1.38;;
59571;SDS011;59406;45.602;11.904;2023-03-20T01:59:28;4.53;;;1.40;;
59571;SDS011;59406;45.602;11.904;2023-03-20T02:01:58;3.97;;;1.48;;
59571;SDS011;59406;45.602;11.904;2023-03-20T02:04:25;5.03;;;1.60;;
59571;SDS011;59406;45.602;11.904;2023-03-20T02:06:55;3.43;;;1.17;;
59571;SDS011;59406;45.602;11.904;2023-03-20T02:09:21;3.97;;;1.63;;
59571;SDS011;59406;45.602;11.904;2023-03-20T02:11:47;3.83;;;1.30;;
59571;SDS011;59406;45.602;11.904;2023-03-20T02:14:14;4.35;;;1.52;;
59571;SDS011;59406;45.602;11.904;2023-03-20T02:16:40;4.47;;;1.63;;
59571;SDS011;59406;45.602;11.904;2023-03-20T02:19:07;4.53;;;1.55;;
59571;SDS011;59406;45.602;11.904;2023-03-20T02:21:45;4.28;;;1.60;;
59571;SDS011;59406;45.602;11.904;2023-03-20T02:27:00;3.75;;;1.30;;
59571;SDS011;59406;45.602;11.904;2023-03-20T02:37:42;3.97;;;1.60;;
59571;SDS011;59406;45.602;11.904;2023-03-20T02:40:34;3.83;;;1.38;;
59571;SDS011;59406;45.602;11.904;2023-03-20T02:43:13;4.10;;;1.50;;
59571;SDS011;59406;45.602;11.904;2023-03-20T02:59:29;3.92;;;1.25;;
59571;SDS011;59406;45.602;11.904;2023-03-20T03:02:08;4.32;;;1.48;;
59571;SDS011;59406;45.602;11.904;2023-03-20T03:04:48;4.18;;;1.40;;
59571;SDS011;59406;45.602;11.904;2023-03-20T03:07:19;4.28;;;1.60;;
59571;SDS011;59406;45.602;11.904;2023-03-20T03:12:24;3.97;;;1.50;;
59571;SDS011;59406;45.602;11.904;2023-03-20T03:14:56;4.30;;;1.65;;
59571;SDS011;59406;45.602;11.904;2023-03-20T03:17:26;3.97;;;1.50;;
59571;SDS011;59406;45.602;11.904;2023-03-20T03:19:58;4.15;;;1.48;;
59571;SDS011;59406;45.602;11.904;2023-03-20T03:22:30;4.23;;;1.60;;
59571;SDS011;59406;45.602;11.904;2023-03-20T03:24:58;4.00;;;1.60;;
59571;SDS011;59406;45.602;11.904;2023-03-20T03:27:35;5.03;;;1.52;;
59571;SDS011;59406;45.602;11.904;2023-03-20T03:30:23;3.70;;;1.10;;
59571;SDS011;59406;45.602;11.904;2023-03-20T03:35:44;4.57;;;1.30;;
59571;SDS011;59406;45.602;11.904;2023-03-20T03:41:02;3.70;;;1.40;;
59571;SDS011;59406;45.602;11.904;2023-03-20T03:43:50;4.10;;;1.67;;
59571;SDS011;59406;45.602;11.904;2023-03-20T03:49:06;3.70;;;1.33;;
59571;SDS011;59406;45.602;11.904;2023-03-20T03:51:35;3.72;;;1.27;;
59571;SDS011;59406;45.602;11.904;2023-03-20T03:54:14;3.88;;;1.30;;
59571;SDS011;59406;45.602;11.904;2023-03-20T03:56:44;3.90;;;1.40;;
59571;SDS011;59406;45.602;11.904;2023-03-20T04:02:07;4.33;;;1.50;;
59571;SDS011;59406;45.602;11.904;2023-03-20T04:04:34;3.75;;;1.50;;
59571;SDS011;59406;45.602;11.904;2023-03-20T04:07:06;4.03;;;1.25;;
59571;SDS011;59406;45.602;11.904;2023-03-20T04:09:32;4.32;;;1.50;;
59571;SDS011;59406;45.602;11.904;2023-03-20T04:11:58;4.07;;;1.40;;
59571;SDS011;59406;45.602;11.904;2023-03-20T04:14:24;4.70;;;1.73;;
59571;SDS011;59406;45.602;11.904;2023-03-20T04:16:49;3.83;;;1.40;;
59571;SDS011;59406;45.602;11.904;2023-03-20T04:19:15;4.07;;;1.50;;
59571;SDS011;59406;45.602;11.904;2023-03-20T04:21:41;3.73;;;1.47;;
59571;SDS011;59406;45.602;11.904;2023-03-20T04:24:07;3.80;;;1.52;;
59571;SDS011;59406;45.602;11.904;2023-03-20T04:26:33;4.43;;;1.52;;
59571;SDS011;59406;45.602;11.904;2023-03-20T04:28:59;4.35;;;1.63;;
59571;SDS011;59406;45.602;11.904;2023-03-20T04:31:26;3.93;;;1.60;;
59571;SDS011;59406;45.602;11.904;2023-03-20T04:33:52;4.07;;;1.40;;
59571;SDS011;59406;45.602;11.904;2023-03-20T04:36:18;4.10;;;1.65;;
59571;SDS011;59406;45.602;11.904;2023-03-20T04:38:44;4.05;;;1.75;;
59571;SDS011;59406;45.602;11.904;2023-03-20T04:41:10;3.63;;;1.33;;
59571;SDS011;59406;45.602;11.904;2023-03-20T04:43:37;3.97;;;1.58;;
59571;SDS011;59406;45.602;11.904;2023-03-20T04:46:04;3.50;;;1.40;;
59571;SDS011;59406;45.602;11.904;2023-03-20T04:48:30;3.80;;;1.30;;
59571;SDS011;59406;45.602;11.904;2023-03-20T04:50:56;4.03;;;1.40;;
59571;SDS011;59406;45.602;11.904;2023-03-20T04:53:22;4.25;;;1.73;;
59571;SDS011;59406;45.602;11.904;2023-03-20T04:55:48;3.97;;;1.50;;
59571;SDS011;59406;45.602;11.904;2023-03-20T04:58:15;3.75;;;1.48;;
59571;SDS011;59406;45.602;11.904;2023-03-20T05:00:42;4.00;;;1.50;;
59571;SDS011;59406;45.602;11.904;2023-03-20T05:03:09;4.10;;;1.70;;
59571;SDS011;59406;45.602;11.904;2023-03-20T05:05:35;3.85;;;1.60;;
59571;SDS011;59406;45.602;11.904;2023-03-20T05:08:02;3.28;;;1.30;;
59571;SDS011;59406;45.602;11.904;2023-03-20T05:10:29;4.00;;;1.55;;
59571;SDS011;59406;45.602;11.904;2023-03-20T05:12:56;3.40;;;1.20;;
59571;SDS011;59406;45.602;11.904;2023-03-20T05:15:21;4.07;;;1.55;;
59571;SDS011;59406;45.602;11.904;2023-03-20T05:17:47;4.50;;;1.45;;
59571;SDS011;59406;45.602;11.904;2023-03-20T05:20:13;4.43;;;1.70;;
59571;SDS011;59406;45.602;11.904;2023-03-20T05:22:40;4.60;;;1.50;;
59571;SDS011;59406;45.602;11.904;2023-03-20T05:25:06;4.85;;;1.75;;
59571;SDS011;59406;45.602;11.904;2023-03-20T05:27:32;4.03;;;1.67;;
59571;SDS011;59406;45.602;11.904;2023-03-20T05:29:58;4.50;;;1.60;;
59571;SDS011;59406;45.602;11.904;2023-03-20T05:32:24;4.03;;;1.50;;
59571;SDS011;59406;45.602;11.904;2023-03-20T05:34:50;4.78;;;1.70;;
59571;SDS011;59406;45.602;11.904;2023-03-20T05:37:17;3.63;;;1.50;;
59571;SDS011;59406;45.602;11.904;2023-03-20T05:39:43;4.27;;;1.57;;
59571;SDS011;59406;45.602;11.904;2023-03-20T05:42:09;4.23;;;1.50;;
59571;SDS011;59406;45.602;11.904;2023-03-20T05:44:35;4.13;;;1.50;;
59571;SDS011;59406;45.602;11.904;2023-03-20T05:47:01;3.63;;;1.50;;
59571;SDS011;59406;45.602;11.904;2023-03-20T05:49:27;3.85;;;1.50;;
59571;SDS011;59406;45.602;11.904;2023-03-20T05:51:53;5.73;;;1.60;;
59571;SDS011;59406;45.602;11.904;2023-03-20T05:54:19;4.30;;;1.90;;
59571;SDS011;59406;45.602;11.904;2023-03-20T05:56:45;4.50;;;1.45;;
59571;SDS011;59406;45.602;11.904;2023-03-20T05:59:11;4.50;;;1.50;;
59571;SDS011;59406;45.602;11.904;2023-03-20T06:01:37;4.43;;;1.77;;
59571;SDS011;59406;45.602;11.904;2023-03-20T06:04:03;4.25;;;1.75;;
59571;SDS011;59406;45.602;11.904;2023-03-20T06:06:29;4.45;;;1.90;;
59571;SDS011;59406;45.602;11.904;2023-03-20T06:08:55;4.05;;;1.40;;
59571;SDS011;59406;45.602;11.904;2023-03-20T06:11:21;4.70;;;1.60;;
59571;SDS011;59406;45.602;11.904;2023-03-20T06:13:47;4.88;;;1.88;;
59571;SDS011;59406;45.602;11.904;2023-03-20T06:16:15;5.72;;;1.90;;
59571;SDS011;59406;45.602;11.904;2023-03-20T06:18:41;4.63;;;1.47;;
59571;SDS011;59406;45.602;11.904;2023-03-20T06:21:06;4.45;;;1.80;;
59571;SDS011;59406;45.602;11.904;2023-03-20T06:26:55;5.57;;;1.80;;
59571;SDS011;59406;45.602;11.904;2023-03-20T06:29:21;4.27;;;1.70;;
59571;SDS011;59406;45.602;11.904;2023-03-20T06:31:47;4.68;;;1.70;;
59571;SDS011;59406;45.602;11.904;2023-03-20T06:34:13;5.45;;;1.95;;
59571;SDS011;59406;45.602;11.904;2023-03-20T06:36:39;4.40;;;1.55;;
59571;SDS011;59406;45.602;11.904;2023-03-20T06:39:05;6.68;;;1.73;;
59571;SDS011;59406;45.602;11.904;2023-03-20T06:41:32;5.20;;;2.27;;
59571;SDS011;59406;45.602;11.904;2023-03-20T06:43:58;4.28;;;1.77;;
59571;SDS011;59406;45.602;11.904;2023-03-20T06:46:24;4.20;;;1.73;;
59571;SDS011;59406;45.602;11.904;2023-03-20T06:48:50;4.57;;;1.67;;
59571;SDS011;59406;45.602;11.904;2023-03-20T06:51:17;4.23;;;1.73;;
59571;SDS011;59406;45.602;11.904;2023-03-20T06:53:42;4.13;;;1.73;;
59571;SDS011;59406;45.602;11.904;2023-03-20T06:56:09;4.63;;;1.83;;
59571;SDS011;59406;45.602;11.904;2023-03-20T06:58:36;5.80;;;2.05;;
59571;SDS011;59406;45.602;11.904;2023-03-20T07:01:07;5.00;;;1.90;;
59571;SDS011;59406;45.602;11.904;2023-03-20T07:03:34;5.23;;;1.90;;
59571;SDS011;59406;45.602;11.904;2023-03-20T07:06:00;4.38;;;1.70;;
59571;SDS011;59406;45.602;11.904;2023-03-20T07:08:26;6.60;;;2.00;;
59571;SDS011;59406;45.602;11.904;2023-03-20T07:10:52;6.27;;;1.83;;
59571;SDS011;59406;45.602;11.904;2023-03-20T07:13:19;4.97;;;1.90;;
59571;SDS011;59406;45.602;11.904;2023-03-20T07:15:45;5.00;;;2.00;;
59571;SDS011;59406;45.602;11.904;2023-03-20T07:18:11;4.28;;;1.70;;
59571;SDS011;59406;45.602;11.904;2023-03-20T07:20:38;5.85;;;1.90;;
59571;SDS011;59406;45.602;11.904;2023-03-20T07:23:04;7.40;;;2.03;;
59571;SDS011;59406;45.602;11.904;2023-03-20T07:25:30;4.50;;;1.80;;
59571;SDS011;59406;45.602;11.904;2023-03-20T07:27:56;5.05;;;1.85;;
59571;SDS011;59406;45.602;11.904;2023-03-20T07:30:23;4.00;;;1.60;;
59571;SDS011;59406;45.602;11.904;2023-03-20T07:32:49;7.05;;;2.25;;
59571;SDS011;59406;45.602;11.904;2023-03-20T07:35:15;4.37;;;1.93;;
59571;SDS011;59406;45.602;11.904;2023-03-20T07:37:41;5.20;;;1.80;;
59571;SDS011;59406;45.602;11.904;2023-03-20T07:40:08;5.80;;;2.08;;
59571;SDS011;59406;45.602;11.904;2023-03-20T07:42:34;4.30;;;1.60;;
59571;SDS011;59406;45.602;11.904;2023-03-20T07:45:00;5.05;;;1.88;;
59571;SDS011;59406;45.602;11.904;2023-03-20T07:47:26;6.07;;;1.80;;
59571;SDS011;59406;45.602;11.904;2023-03-20T07:49:52;4.50;;;1.80;;
59571;SDS011;59406;45.602;11.904;2023-03-20T07:52:18;4.72;;;1.70;;
59571;SDS011;59406;45.602;11.904;2023-03-20T07:54:44;5.43;;;2.00;;
59571;SDS011;59406;45.602;11.904;2023-03-20T07:57:11;6.57;;;2.00;;
59571;SDS011;59406;45.602;11.904;2023-03-20T07:59:37;4.10;;;1.85;;
59571;SDS011;59406;45.602;11.904;2023-03-20T08:02:03;4.60;;;1.60;;
59571;SDS011;59406;45.602;11.904;2023-03-20T08:04:28;4.22;;;1.52;;
59571;SDS011;59406;45.602;11.904;2023-03-20T08:06:55;4.22;;;2.00;;
59571;SDS011;59406;45.602;11.904;2023-03-20T08:09:20;5.10;;;2.00;;
59571;SDS011;59406;45.602;11.904;2023-03-20T08:11:46;4.85;;;1.45;;
59571;SDS011;59406;45.602;11.904;2023-03-20T08:14:12;4.90;;;2.10;;
59571;SDS011;59406;45.602;11.904;2023-03-20T08:16:38;4.63;;;1.80;;
59571;SDS011;59406;45.602;11.904;2023-03-20T08:19:04;4.83;;;2.07;;
59571;SDS011;59406;45.602;11.904;2023-03-20T08:21:31;4.78;;;1.65;;
59571;SDS011;59406;45.602;11.904;2023-03-20T08:23:57;4.22;;;1.85;;
59571;SDS011;59406;45.602;11.904;2023-03-20T08:26:23;5.20;;;1.85;;
59571;SDS011;59406;45.602;11.904;2023-03-20T08:28:50;4.40;;;1.90;;
59571;SDS011;59406;45.602;11.904;2023-03-20T08:31:16;4.20;;;1.70;;
59571;SDS011;59406;45.602;11.904;2023-03-20T08:33:43;3.78;;;1.63;;
59571;SDS011;59406;45.602;11.904;2023-03-20T08:36:10;4.53;;;1.80;;
59571;SDS011;59406;45.602;11.904;2023-03-20T08:38:39;4.32;;;1.70;;
59571;SDS011;59406;45.602;11.904;2023-03-20T08:41:05;5.38;;;2.10;;
59571;SDS011;59406;45.602;11.904;2023-03-20T08:43:31;6.53;;;3.13;;
59571;SDS011;59406;45.602;11.904;2023-03-20T08:45:58;11.43;;;7.47;;
59571;SDS011;59406;45.602;11.904;2023-03-20T08:48:24;9.43;;;6.25;;
59571;SDS011;59406;45.602;11.904;2023-03-20T08:50:50;10.75;;;6.63;;
59571;SDS011;59406;45.602;11.904;2023-03-20T08:53:16;6.35;;;2.92;;
59571;SDS011;59406;45.602;11.904;2023-03-20T08:55:49;10.90;;;7.30;;
59571;SDS011;59406;45.602;11.904;2023-03-20T08:58:16;9.30;;;5.70;;
59571;SDS011;59406;45.602;11.904;2023-03-20T09:00:43;7.93;;;3.10;;
59571;SDS011;59406;45.602;11.904;2023-03-20T09:03:12;5.80;;;2.70;;
59571;SDS011;59406;45.602;11.904;2023-03-20T09:05:40;6.38;;;2.70;;
59571;SDS011;59406;45.602;11.904;2023-03-20T09:08:11;6.73;;;3.20;;
59571;SDS011;59406;45.602;11.904;2023-03-20T09:10:37;6.80;;;3.63;;
59571;SDS011;59406;45.602;11.904;2023-03-20T09:13:05;11.27;;;6.82;;
59571;SDS011;59406;45.602;11.904;2023-03-20T09:15:31;9.63;;;6.63;;
59571;SDS011;59406;45.602;11.904;2023-03-20T09:17:58;11.35;;;6.63;;
59571;SDS011;59406;45.602;11.904;2023-03-20T09:20:24;6.40;;;3.83;;
59571;SDS011;59406;45.602;11.904;2023-03-20T09:22:51;11.55;;;7.55;;
59571;SDS011;59406;45.602;11.904;2023-03-20T09:25:17;10.73;;;6.85;;
59571;SDS011;59406;45.602;11.904;2023-03-20T09:27:43;10.88;;;6.50;;
59571;SDS011;59406;45.602;11.904;2023-03-20T09:30:10;10.52;;;6.55;;
59571;SDS011;59406;45.602;11.904;2023-03-20T09:32:36;11.60;;;6.53;;
59571;SDS011;59406;45.602;11.904;2023-03-20T09:35:02;10.63;;;6.43;;
59571;SDS011;59406;45.602;11.904;2023-03-20T09:37:29;9.75;;;5.93;;
59571;SDS011;59406;45.602;11.904;2023-03-20T09:39:55;11.48;;;6.47;;
59571;SDS011;59406;45.602;11.904;2023-03-20T09:42:41;11.52;;;6.55;;
59571;SDS011;59406;45.602;11.904;2023-03-20T09:45:33;8.90;;;5.63;;
59571;SDS011;59406;45.602;11.904;2023-03-20T09:48:18;11.88;;;6.80;;
59571;SDS011;59406;45.602;11.904;2023-03-20T09:54:09;9.93;;;6.35;;
59571;SDS011;59406;45.602;11.904;2023-03-20T09:56:42;12.60;;;6.88;;
59571;SDS011;59406;45.602;11.904;2023-03-20T09:59:10;14.40;;;7.77;;
59571;SDS011;59406;45.602;11.904;2023-03-20T10:04:19;9.32;;;5.30;;
59571;SDS011;59406;45.602;11.904;2023-03-20T10:06:48;11.82;;;6.75;;
59571;SDS011;59406;45.602;11.904;2023-03-20T10:09:14;10.85;;;7.10;;
59571;SDS011;59406;45.602;11.904;2023-03-20T10:17:33;11.80;;;7.05;;
59571;SDS011;59406;45.602;11.904;2023-03-20T10:23:01;10.77;;;6.50;;
59571;SDS011;59406;45.602;11.904;2023-03-20T10:25:49;10.43;;;6.07;;
59571;SDS011;59406;45.602;11.904;2023-03-20T10:28:21;11.13;;;6.53;;
59571;SDS011;59406;45.602;11.904;2023-03-20T10:39:00;11.60;;;6.20;;
59571;SDS011;59406;45.602;11.904;2023-03-20T10:41:37;7.45;;;3.95;;
59571;SDS011;59406;45.602;11.904;2023-03-20T10:44:13;6.30;;;2.67;;
59571;SDS011;59406;45.602;11.904;2023-03-20T10:46:45;8.40;;;5.13;;
59571;SDS011;59406;45.602;11.904;2023-03-20T10:51:54;9.53;;;5.33;;
59571;SDS011;59406;45.602;11.904;2023-03-20T10:54:45;10.85;;;5.72;;
59571;SDS011;59406;45.602;11.904;2023-03-20T10:57:21;9.95;;;5.35;;
59571;SDS011;59406;45.602;11.904;2023-03-20T10:59:50;8.85;;;4.75;;
59571;SDS011;59406;45.602;11.904;2023-03-20T11:02:18;8.50;;;5.20;;
59571;SDS011;59406;45.602;11.904;2023-03-20T11:04:46;7.30;;;4.53;;
59571;SDS011;59406;45.602;11.904;2023-03-20T11:12:33;8.73;;;5.40;;
59571;SDS011;59406;45.602;11.904;2023-03-20T11:17:52;9.07;;;4.50;;
59571;SDS011;59406;45.602;11.904;2023-03-20T11:20:19;8.75;;;5.18;;
59571;SDS011;59406;45.602;11.904;2023-03-20T11:22:46;8.45;;;4.72;;
59571;SDS011;59406;45.602;11.904;2023-03-20T11:31:05;8.20;;;4.80;;
59571;SDS011;59406;45.602;11.904;2023-03-20T11:33:44;7.85;;;4.65;;
59571;SDS011;59406;45.602;11.904;2023-03-20T11:36:25;8.55;;;4.68;;
59571;SDS011;59406;45.602;11.904;2023-03-20T11:41:32;9.70;;;4.85;;
59571;SDS011;59406;45.602;11.904;2023-03-20T11:43:59;9.07;;;4.50;;
59571;SDS011;59406;45.602;11.904;2023-03-20T11:46:25;7.70;;;4.32;;
59571;SDS011;59406;45.602;11.904;2023-03-20T11:49:05;7.63;;;4.13;;
59571;SDS011;59406;45.602;11.904;2023-03-20T11:51:41;7.50;;;4.03;;
59571;SDS011;59406;45.602;11.904;2023-03-20T11:54:12;6.45;;;3.15;;
59571;SDS011;59406;45.602;11.904;2023-03-20T11:56:50;6.87;;;3.30;;
59571;SDS011;59406;45.602;11.904;2023-03-20T11:59:21;7.78;;;3.50;;
59571;SDS011;59406;45.602;11.904;2023-03-20T12:01:50;6.35;;;3.28;;
59571;SDS011;59406;45.602;11.904;2023-03-20T12:04:31;7.10;;;3.50;;
59571;SDS011;59406;45.602;11.904;2023-03-20T12:07:24;6.47;;;2.88;;
59571;SDS011;59406;45.602;11.904;2023-03-20T12:10:04;6.13;;;3.47;;
59571;SDS011;59406;45.602;11.904;2023-03-20T12:15:28;7.82;;;3.88;;
59571;SDS011;59406;45.602;11.904;2023-03-20T12:18:01;7.25;;;3.30;;
59571;SDS011;59406;45.602;11.904;2023-03-20T12:26:12;7.70;;;2.72;;
59571;SDS011;59406;45.602;11.904;2023-03-20T12:28:51;7.15;;;3.10;;
59571;SDS011;59406;45.602;11.904;2023-03-20T12:31:25;5.57;;;2.75;;
59571;SDS011;59406;45.602;11.904;2023-03-20T12:36:49;7.00;;;3.40;;
59571;SDS011;59406;45.602;11.904;2023-03-20T12:39:22;8.30;;;3.63;;
59571;SDS011;59406;45.602;11.904;2023-03-20T12:42:09;6.68;;;3.25;;
59571;SDS011;59406;45.602;11.904;2023-03-20T12:47:36;7.13;;;3.45;;
59571;SDS011;59406;45.602;11.904;2023-03-20T12:50:32;7.17;;;3.70;;
59571;SDS011;59406;45.602;11.904;2023-03-20T12:53:15;5.50;;;2.70;;
59571;SDS011;59406;45.602;11.904;2023-03-20T13:01:28;8.40;;;4.30;;
59571;SDS011;59406;45.602;11.904;2023-03-20T13:04:18;13.90;;;5.13;;
59571;SDS011;59406;45.602;11.904;2023-03-20T13:06:55;8.32;;;4.35;;
59571;SDS011;59406;45.602;11.904;2023-03-20T13:09:27;6.97;;;3.70;;
59571;SDS011;59406;45.602;11.904;2023-03-20T13:12:28;5.88;;;2.38;;
59571;SDS011;59406;45.602;11.904;2023-03-20T13:17:45;9.73;;;4.60;;
59571;SDS011;59406;45.602;11.904;2023-03-20T13:23:09;9.73;;;4.97;;
59571;SDS011;59406;45.602;11.904;2023-03-20T13:26:16;10.77;;;5.78;;
59571;SDS011;59406;45.602;11.904;2023-03-20T13:39:21;11.07;;;5.75;;
59571;SDS011;59406;45.602;11.904;2023-03-20T13:41:49;12.07;;;6.78;;
59571;SDS011;59406;45.602;11.904;2023-03-20T13:44:17;12.57;;;7.13;;
59571;SDS011;59406;45.602;11.904;2023-03-20T13:46:56;11.77;;;6.38;;
59571;SDS011;59406;45.602;11.904;2023-03-20T13:51:58;12.10;;;6.85;;
59571;SDS011;59406;45.602;11.904;2023-03-20T13:54:36;9.25;;;5.72;;
59571;SDS011;59406;45.602;11.904;2023-03-20T14:05:28;13.80;;;7.22;;
59571;SDS011;59406;45.602;11.904;2023-03-20T14:08:00;8.82;;;4.95;;
59571;SDS011;59406;45.602;11.904;2023-03-20T14:11:33;7.60;;;3.67;;
59571;SDS011;59406;45.602;11.904;2023-03-20T14:14:01;8.25;;;3.85;;
59571;SDS011;59406;45.602;11.904;2023-03-20T14:16:37;8.82;;;5.05;;
59571;SDS011;59406;45.602;11.904;2023-03-20T14:21:43;11.80;;;6.70;;
59571;SDS011;59406;45.602;11.904;2023-03-20T14:24:14;8.07;;;4.87;;
59571;SDS011;59406;45.602;11.904;2023-03-20T14:26:42;12.77;;;7.10;;
59571;SDS011;59406;45.602;11.904;2023-03-20T14:29:20;13.43;;;7.55;;
59571;SDS011;59406;45.602;11.904;2023-03-20T14:37:30;11.73;;;6.57;;
59571;SDS011;59406;45.602;11.904;2023-03-20T14:40:13;8.98;;;4.65;;
59571;SDS011;59406;45.602;11.904;2023-03-20T14:47:43;11.20;;;6.87;;
59571;SDS011;59406;45.602;11.904;2023-03-20T14:55:50;9.65;;;5.07;;
59571;SDS011;59406;45.602;11.904;2023-03-20T15:01:40;11.83;;;5.87;;
59571;SDS011;59406;45.602;11.904;2023-03-20T15:07:02;12.02;;;6.47;;
59571;SDS011;59406;45.602;11.904;2023-03-20T15:09:32;11.40;;;6.65;;
59571;SDS011;59406;45.602;11.904;2023-03-20T15:12:01;11.85;;;5.85;;
59571;SDS011;59406;45.602;11.904;2023-03-20T15:14:30;11.20;;;6.93;;
59571;SDS011;59406;45.602;11.904;2023-03-20T15:17:00;13.60;;;7.43;;
59571;SDS011;59406;45.602;11.904;2023-03-20T15:19:28;11.20;;;6.88;;
59571;SDS011;59406;45.602;11.904;2023-03-20T15:21:54;11.40;;;6.85;;
59571;SDS011;59406;45.602;11.904;2023-03-20T15:24:21;13.40;;;7.85;;
59571;SDS011;59406;45.602;11.904;2023-03-20T15:26:57;12.00;;;7.10;;
59571;SDS011;59406;45.602;11.904;2023-03-20T15:29:24;13.27;;;7.25;;
59571;SDS011;59406;45.602;11.904;2023-03-20T15:31:55;12.45;;;6.90;;
59571;SDS011;59406;45.602;11.904;2023-03-20T15:34:27;11.73;;;6.40;;
59571;SDS011;59406;45.602;11.904;2023-03-20T15:36:56;11.50;;;6.95;;
59571;SDS011;59406;45.602;11.904;2023-03-20T15:39:27;12.10;;;6.40;;
59571;SDS011;59406;45.602;11.904;2023-03-20T15:42:08;10.95;;;6.82;;
59571;SDS011;59406;45.602;11.904;2023-03-20T15:44:38;11.73;;;6.57;;
59571;SDS011;59406;45.602;11.904;2023-03-20T15:49:35;11.50;;;6.75;;
59571;SDS011;59406;45.602;11.904;2023-03-20T15:55:05;12.40;;;6.90;;
59571;SDS011;59406;45.602;11.904;2023-03-20T15:57:37;11.48;;;6.50;;
59571;SDS011;59406;45.602;11.904;2023-03-20T16:00:06;12.05;;;7.65;;
59571;SDS011;59406;45.602;11.904;2023-03-20T16:02:37;11.65;;;6.72;;
59571;SDS011;59406;45.602;11.904;2023-03-20T16:05:04;11.50;;;6.47;;
59571;SDS011;59406;45.602;11.904;2023-03-20T16:07:36;13.27;;;6.60;;
59571;SDS011;59406;45.602;11.904;2023-03-20T16:10:03;13.32;;;7.18;;
59571;SDS011;59406;45.602;11.904;2023-03-20T16:12:48;10.55;;;6.40;;
59571;SDS011;59406;45.602;11.904;2023-03-20T16:15:16;11.40;;;6.70;;
59571;SDS011;59406;45.602;11.904;2023-03-20T16:17:44;11.52;;;6.50;;
59571;SDS011;59406;45.602;11.904;2023-03-20T16:20:13;11.65;;;6.38;;
59571;SDS011;59406;45.602;11.904;2023-03-20T16:22:41;12.60;;;7.05;;
59571;SDS011;59406;45.602;11.904;2023-03-20T16:25:13;9.52;;;5.75;;
59571;SDS011;59406;45.602;11.904;2023-03-20T16:27:41;9.37;;;4.70;;
59571;SDS011;59406;45.602;11.904;2023-03-20T16:30:13;11.40;;;5.63;;
59571;SDS011;59406;45.602;11.904;2023-03-20T16:32:43;10.98;;;6.53;;
59571;SDS011;59406;45.602;11.904;2023-03-20T16:35:18;9.25;;;4.28;;
59571;SDS011;59406;45.602;11.904;2023-03-20T16:38:00;9.80;;;5.40;;
59571;SDS011;59406;45.602;11.904;2023-03-20T16:40:28;10.13;;;5.77;;
59571;SDS011;59406;45.602;11.904;2023-03-20T16:43:02;10.63;;;6.57;;
59571;SDS011;59406;45.602;11.904;2023-03-20T16:45:42;10.63;;;6.28;;
59571;SDS011;59406;45.602;11.904;2023-03-20T16:50:39;9.47;;;5.23;;
59571;SDS011;59406;45.602;11.904;2023-03-20T16:53:13;9.32;;;5.15;;
59571;SDS011;59406;45.602;11.904;2023-03-20T16:55:41;9.68;;;5.75;;
59571;SDS011;59406;45.602;11.904;2023-03-20T16:58:12;10.70;;;5.80;;
59571;SDS011;59406;45.602;11.904;2023-03-20T17:01:07;9.23;;;5.13;;
59571;SDS011;59406;45.602;11.904;2023-03-20T17:06:24;11.07;;;6.07;;
59571;SDS011;59406;45.602;11.904;2023-03-20T17:09:01;11.63;;;6.40;;
59571;SDS011;59406;45.602;11.904;2023-03-20T17:11:48;13.45;;;6.70;;
59571;SDS011;59406;45.602;11.904;2023-03-20T17:14:21;10.37;;;6.47;;
59571;SDS011;59406;45.602;11.904;2023-03-20T17:16:47;12.27;;;7.10;;
59571;SDS011;59406;45.602;11.904;2023-03-20T17:19:17;12.77;;;7.38;;
59571;SDS011;59406;45.602;11.904;2023-03-20T17:21:50;12.98;;;7.45;;
59571;SDS011;59406;45.602;11.904;2023-03-20T17:24:16;16.30;;;9.07;;
59571;SDS011;59406;45.602;11.904;2023-03-20T17:26:48;13.03;;;7.73;;
59571;SDS011;59406;45.602;11.904;2023-03-20T17:29:19;14.82;;;9.20;;
59571;SDS011;59406;45.602;11.904;2023-03-20T17:31:45;14.75;;;8.75;;
59571;SDS011;59406;45.602;11.904;2023-03-20T17:34:11;12.15;;;7.32;;
59571;SDS011;59406;45.602;11.904;2023-03-20T17:36:38;14.00;;;8.23;;
59571;SDS011;59406;45.602;11.904;2023-03-20T17:39:05;14.63;;;8.40;;
59571;SDS011;59406;45.602;11.904;2023-03-20T17:41:31;13.32;;;7.13;;
59571;SDS011;59406;45.602;11.904;2023-03-20T17:43:56;15.32;;;8.70;;
59571;SDS011;59406;45.602;11.904;2023-03-20T17:46:26;16.10;;;8.27;;
59571;SDS011;59406;45.602;11.904;2023-03-20T17:49:01;15.77;;;8.43;;